To NAV CANADA Home Page Login to a new session Search on AWWS site Feedback and Comments Disclaimer Vers la page française équivalente Tips FAQ What's new on the site To the Forecasts and Observations / NOTAM section To "File a Flight Plan" website Publications and other links Update of the User's profile FIC Telephone Numbers My Weather Data Folder Route Weather Data Regional Weather Data Local Weather Data To the Forecasts and Observations / NOTAM section
Request Generated 10/18/2017 at 03:48:41 UTC . Weather information available at that time is displayed.

METAR/TAF

HALIFAX/STANFIELD INTL/NS    (show WxCam)

METAR CYHZ 180300Z 27007KT 15SM SKC 03/M01 A3016 RMK SLP220=
METAR CYHZ 180200Z 25008KT 15SM SKC 04/M01 A3015 RMK SLP217=
METAR CYHZ 180100Z 26009KT 15SM SKC 04/M02 A3015 RMK SLP216=

TAF CYHZ 180238Z 1803/1824 25008KT P6SM SKC
FM180900 22010KT P6SM BKN080
FM181100 22012G22KT P6SM OVC050 TEMPO 1811/1813 P6SM -SHRA
FM181500 25015G25KT P6SM SCT050
FM181800 29012G22KT P6SM SKC
RMK NXT FCST BY 180600Z=
Your time UTC time
Weather data provided by Environment Canada and NAV CANADA